createdAt,value
2022-11-05T01:01:31.858Z,101091.78
2022-11-05T01:06:40.542Z,101093.22
2022-11-05T01:32:47.256Z,101107.87
2022-11-05T02:03:56.578Z,101117.84
2022-11-05T02:24:37.562Z,101122.66
2022-11-05T02:35:10.211Z,101129.72
2022-11-05T02:40:22.218Z,101135.34
2022-11-05T02:45:38.307Z,101137.81
2022-11-05T02:56:24.165Z,101141.16
2022-11-05T03:01:27.272Z,101149.41
2022-11-05T03:17:42.803Z,101155.03
2022-11-05T03:22:52.580Z,101172.44
2022-11-05T03:28:01.928Z,101175.38
2022-11-05T03:33:15.790Z,101166.72
2022-11-05T03:38:25.743Z,101174.06
2022-11-05T03:43:34.044Z,101175.25
2022-11-05T03:48:48.381Z,101183.78
2022-11-05T03:53:56.894Z,101199.87
2022-11-05T03:59:02.687Z,101201.09
2022-11-05T04:04:13.855Z,101213.00
2022-11-05T04:09:19.011Z,101219.44
2022-11-05T04:14:21.930Z,101213.16
2022-11-05T04:19:30.196Z,101213.16
2022-11-05T04:24:33.935Z,101215.03
2022-11-05T04:29:37.955Z,101223.37
2022-11-05T04:34:46.226Z,101230.00
2022-11-05T04:39:49.970Z,101232.91
2022-11-05T04:50:19.785Z,101230.84
2022-11-05T04:55:23.906Z,101235.03
2022-11-05T05:05:47.550Z,101229.59
2022-11-05T05:10:50.800Z,101241.59
2022-11-05T05:15:53.528Z,101249.25
2022-11-05T05:21:05.027Z,101245.22
2022-11-05T05:26:09.031Z,101250.81
2022-11-05T05:36:34.969Z,101255.59
2022-11-05T05:41:38.718Z,101265.00
2022-11-05T05:46:42.687Z,101276.22
2022-11-05T05:51:51.898Z,101286.59
2022-11-05T05:56:54.717Z,101290.69
2022-11-05T06:01:57.803Z,101290.38
2022-11-05T06:07:06.027Z,101306.31
2022-11-05T06:12:09.390Z,101311.06
2022-11-05T06:17:12.147Z,101320.59
2022-11-05T06:22:20.573Z,101316.75
2022-11-05T06:27:23.555Z,101319.78
2022-11-05T06:32:26.557Z,101332.00
2022-11-05T06:37:35.079Z,101341.53
2022-11-05T06:42:39.007Z,101357.97
2022-11-05T06:47:41.812Z,101352.91
2022-11-05T06:52:54.665Z,101352.22
2022-11-05T06:57:59.645Z,101348.84
2022-11-05T07:03:06.171Z,101347.16
2022-11-05T07:08:14.931Z,101364.44
2022-11-05T07:13:17.910Z,101357.16
2022-11-05T07:18:21.052Z,101365.47
2022-11-05T07:23:29.239Z,101376.31
2022-11-05T07:28:31.954Z,101377.16
2022-11-05T07:33:36.711Z,101378.81
2022-11-05T07:38:45.019Z,101388.81
2022-11-05T07:43:47.814Z,101396.63
2022-11-05T07:48:50.591Z,101402.69
2022-11-05T07:53:58.830Z,101416.72
2022-11-05T08:04:28.226Z,101412.09
2022-11-05T08:09:31.270Z,101425.47
2022-11-05T08:14:34.221Z,101427.97
2022-11-05T08:30:23.252Z,101433.09
2022-11-05T08:35:27.348Z,101428.19
2022-11-05T08:40:33.543Z,101436.31
2022-11-05T08:45:42.660Z,101435.59
2022-11-05T08:55:59.302Z,101442.25
2022-11-05T09:01:08.861Z,101448.94
2022-11-05T09:17:04.782Z,101439.06
2022-11-05T09:22:07.577Z,101438.00
2022-11-05T09:27:11.729Z,101439.16
2022-11-05T09:32:20.025Z,101443.87
2022-11-05T09:37:23.208Z,101443.75
2022-11-05T09:42:31.978Z,101458.13
2022-11-05T09:47:43.917Z,101458.81
2022-11-05T09:52:48.022Z,101462.44
2022-11-05T09:57:56.588Z,101468.16
2022-11-05T10:03:09.512Z,101469.00
2022-11-05T10:08:26.805Z,101479.09
2022-11-05T10:13:36.366Z,101481.13
2022-11-05T10:18:56.783Z,101489.09
2022-11-05T10:29:31.445Z,101502.13
2022-11-05T10:34:38.479Z,101496.59
2022-11-05T10:39:41.341Z,101497.59
2022-11-05T10:45:00.363Z,101500.88
2022-11-05T10:50:07.381Z,101506.03
2022-11-05T10:55:24.783Z,101515.47
2022-11-05T11:00:42.373Z,101513.72
2022-11-05T11:05:52.545Z,101530.16
2022-11-05T11:16:27.625Z,101528.53
2022-11-05T11:27:05.401Z,101537.44
2022-11-05T11:32:15.281Z,101542.78
2022-11-05T11:37:23.392Z,101542.78
2022-11-05T11:42:37.063Z,101544.03
2022-11-05T11:47:46.174Z,101535.66
2022-11-05T11:52:50.866Z,101537.63
2022-11-05T12:03:50.484Z,101541.34
2022-11-05T12:09:06.735Z,101546.75
2022-11-05T12:14:25.391Z,101538.19
2022-11-05T12:19:51.439Z,101541.81
2022-11-05T12:25:13.766Z,101538.06
2022-11-05T12:30:18.673Z,101547.81
2022-11-05T12:35:48.101Z,101551.00
2022-11-05T12:41:14.297Z,101552.47
2022-11-05T12:46:29.554Z,101548.25
2022-11-05T12:56:57.799Z,101537.53
2022-11-05T13:07:30.611Z,101547.84
2022-11-05T13:12:38.385Z,101563.69
2022-11-05T13:17:50.502Z,101552.94
2022-11-05T13:23:03.799Z,101549.56
2022-11-05T13:28:15.592Z,101559.25
2022-11-05T13:33:23.617Z,101557.97
2022-11-05T13:49:54.976Z,101563.47
2022-11-05T14:00:44.899Z,101562.19
2022-11-05T14:11:21.502Z,101567.25
2022-11-05T14:16:27.272Z,101569.34
2022-11-05T14:38:21.572Z,101591.22
2022-11-05T14:48:54.138Z,101594.97
2022-11-05T14:54:05.626Z,101594.72
2022-11-05T14:59:35.534Z,101608.31
2022-11-05T15:04:45.631Z,101613.91
2022-11-05T15:09:56.357Z,101613.25
2022-11-05T15:20:26.166Z,101624.25
2022-11-05T15:31:36.247Z,101631.88
2022-11-05T15:36:39.608Z,101649.78
2022-11-05T15:41:42.627Z,101637.25
2022-11-05T15:47:07.139Z,101642.22
2022-11-05T15:52:13.412Z,101650.72
2022-11-05T15:57:26.478Z,101657.72
2022-11-05T16:02:37.803Z,101662.62
2022-11-05T16:07:44.056Z,101659.38
2022-11-05T16:12:46.875Z,101662.41
2022-11-05T16:17:58.378Z,101670.25
2022-11-05T16:23:05.551Z,101669.69
2022-11-05T16:28:22.224Z,101667.44
2022-11-05T16:33:36.247Z,101665.88
2022-11-05T16:38:42.309Z,101670.56
2022-11-05T16:43:53.835Z,101667.28
2022-11-05T16:54:24.489Z,101679.50
2022-11-05T16:59:27.354Z,101674.44
2022-11-05T17:04:30.295Z,101684.72
2022-11-05T17:09:39.768Z,101696.72
2022-11-05T17:14:42.835Z,101700.34
2022-11-05T17:19:46.635Z,101702.28
2022-11-05T17:24:55.621Z,101701.66
2022-11-05T17:29:58.537Z,101711.75
2022-11-05T17:35:01.511Z,101713.72
2022-11-05T17:45:37.034Z,101712.09
2022-11-05T17:50:44.262Z,101715.22
2022-11-05T17:55:49.155Z,101718.72
2022-11-05T18:00:57.478Z,101720.91
2022-11-05T18:06:03.854Z,101724.50
2022-11-05T18:11:06.889Z,101727.75
2022-11-05T18:21:39.073Z,101734.03
2022-11-05T18:26:41.799Z,101740.88
2022-11-05T18:31:45.792Z,101740.75
2022-11-05T18:58:26.329Z,101732.31
2022-11-05T19:03:31.225Z,101727.09
2022-11-05T19:08:41.260Z,101738.28
2022-11-05T19:19:12.820Z,101734.38
2022-11-05T19:24:18.908Z,101737.97
2022-11-05T19:29:21.846Z,101736.44
2022-11-05T19:34:30.931Z,101744.75
2022-11-05T19:45:23.131Z,101732.38
2022-11-05T19:55:59.250Z,101747.31
2022-11-05T20:01:02.327Z,101761.09
2022-11-05T20:06:07.669Z,101766.31
2022-11-05T20:16:47.480Z,101767.03
2022-11-05T20:21:50.336Z,101758.22
2022-11-05T20:32:14.646Z,101775.31
2022-11-05T20:42:44.726Z,101765.00
2022-11-05T20:47:48.223Z,101765.87
2022-11-05T20:52:51.162Z,101776.03
2022-11-05T20:57:59.228Z,101777.06
2022-11-05T21:03:02.229Z,101782.47
2022-11-05T21:08:05.479Z,101795.19
2022-11-05T21:13:13.913Z,101792.63
2022-11-05T21:23:39.725Z,101797.56
2022-11-05T21:28:44.057Z,101786.88
2022-11-05T21:33:50.935Z,101794.50
2022-11-05T21:39:06.620Z,101789.59
2022-11-05T21:44:13.274Z,101789.75
2022-11-05T21:49:16.599Z,101786.53
2022-11-05T21:54:25.425Z,101790.41
2022-11-05T21:59:29.159Z,101785.50
2022-11-05T22:15:19.181Z,101777.34
2022-11-05T22:20:21.919Z,101777.53
2022-11-05T22:25:24.754Z,101784.97
2022-11-05T22:30:34.118Z,101778.69
2022-11-05T22:35:39.792Z,101778.53
2022-11-05T22:40:42.689Z,101788.38
2022-11-05T22:45:53.904Z,101781.06
2022-11-05T22:50:56.668Z,101784.47
2022-11-05T23:01:24.093Z,101791.75
2022-11-05T23:11:54.996Z,101798.19
2022-11-05T23:54:00.347Z,101774.41
2022-11-05T23:59:03.965Z,101773.28
